Time;durP1;ratioP1;P1;durP2;ratioP2;P2;SDS_P1;SDS_P2;PMS_P1;PMS_P2;Temp;Humidity;BMP_temperature;BMP_pressure;BME280_temperature;BME280_humidity;BME280_pressure;Samples;Min_cycle;Max_cycle;Signal;HPM_P1;HPM_P2
2023/05/11 00:00:34;;;;;;;;;;;;;;;7.23;100.00;92805.81;1993457;29;19921;-83
2023/05/11 00:01:39;;;;;;;;;;;;;;;7.14;100.00;92802.91;1989236;29;20032;-81
2023/05/11 00:02:45;;;;;;;;;;;;;;;7.16;100.00;92805.94;1988650;29;19917;-80
2023/05/11 00:03:52;;;;;;;;;;;;;;;7.19;100.00;92808.50;1980703;30;19957;-80
2023/05/11 00:05:08;;;;;;;;;;;;;;;7.20;100.00;92803.94;1981835;29;19921;-82
2023/05/11 00:06:13;;;;;;;;;;;;;;;7.25;100.00;92806.94;1981301;30;19917;-82
2023/05/11 00:07:20;;;;;;;;;;;;;;;7.35;100.00;92802.59;1974172;30;19971;-82
2023/05/11 00:08:27;;;;;;;;;;;;;;;7.29;100.00;92799.66;1981304;29;19964;-79
2023/05/11 00:09:31;;;;;;;;;;;;;;;7.36;100.00;92798.03;1988465;29;20003;-81
2023/05/11 00:10:37;;;;;;;;;;;;;;;7.36;100.00;92803.34;1991625;29;20227;-82
2023/05/11 00:11:43;;;;;;;;;;;;;;;7.32;100.00;92798.84;1979119;29;19914;-83
2023/05/11 00:12:49;;;;;;;;;;;;;;;7.41;100.00;92794.91;1974661;29;20306;-81
2023/05/11 00:13:54;;;;;;;;;;;;;;;7.33;100.00;92804.91;1971365;30;19918;-83
2023/05/11 00:14:59;;;;;;;;;;;;;;;7.34;100.00;92800.34;1960532;30;20360;-82
2023/05/11 00:16:09;;;;;;;;;;;;;;;7.34;100.00;92797.69;1974682;29;19914;-82
2023/05/11 00:17:14;;;;;;;;;;;;;;;7.30;100.00;92795.84;1987192;29;20032;-83
2023/05/11 00:18:25;;;;;;;;;;;;;;;7.30;100.00;92789.78;1988302;29;19939;-82
2023/05/11 00:19:30;;;;;;;;;;;;;;;7.34;100.00;92801.09;1988284;29;19913;-82
2023/05/11 00:20:37;;;;;;;;;;;;;;;7.30;100.00;92803.06;1981846;29;19928;-80
2023/05/11 00:21:52;;;;;;;;;;;;;;;7.34;100.00;92795.78;1972860;30;19918;-82
2023/05/11 00:22:55;;;;;;;;;;;;;;;7.29;100.00;92798.91;1975088;30;20338;-83
2023/05/11 00:24:01;;;;;;;;;;;;;;;7.30;100.00;92795.84;1986186;29;19916;-81
2023/05/11 00:25:07;;;;;;;;;;;;;;;7.29;100.00;92793.59;1993953;29;19912;-82
2023/05/11 00:26:14;;;;;;;;;;;;;;;7.31;100.00;92802.66;1988289;29;19917;-83
2023/05/11 00:27:21;;;;;;;;;;;;;;;7.34;100.00;92797.69;1980638;29;20007;-80
2023/05/11 00:28:22;;;;;;;;;;;;;;;7.32;100.00;92796.16;1985037;29;19960;-81
2023/05/11 00:29:30;;;;;;;;;;;;;;;7.42;100.00;92783.91;1980938;29;19925;-82
2023/05/11 00:30:33;;;;;;;;;;;;;;;7.39;100.00;92786.59;1983104;29;20307;-81
2023/05/11 00:31:38;;;;;;;;;;;;;;;7.48;100.00;92792.16;1980696;29;19917;-82
2023/05/11 00:32:45;;;;;;;;;;;;;;;7.47;100.00;92788.00;1987725;29;19956;-81
2023/05/11 00:33:50;;;;;;;;;;;;;;;7.44;100.00;92786.13;1987922;29;19971;-81
2023/05/11 00:34:56;;;;;;;;;;;;;;;7.50;100.00;92781.84;1973245;29;19914;-80
2023/05/11 00:35:59;;;;;;;;;;;;;;;7.48;100.00;92789.50;1967534;30;19914;-81
2023/05/11 00:37:04;;;;;;;;;;;;;;;7.47;100.00;92788.75;1981777;29;19956;-83
2023/05/11 00:38:10;;;;;;;;;;;;;;;7.44;100.00;92784.22;1983409;29;20433;-80
2023/05/11 00:39:17;;;;;;;;;;;;;;;7.38;100.00;92782.44;1981489;29;19913;-80
2023/05/11 00:40:23;;;;;;;;;;;;;;;7.33;100.00;92780.97;1987357;29;19913;-83
2023/05/11 00:41:28;;;;;;;;;;;;;;;7.32;100.00;92782.13;1988522;29;19928;-82
2023/05/11 00:42:37;;;;;;;;;;;;;;;7.27;100.00;92783.34;1984111;29;19947;-81
2023/05/11 00:43:42;;;;;;;;;;;;;;;7.23;100.00;92774.66;1974013;30;19918;-80
2023/05/11 00:44:49;;;;;;;;;;;;;;;7.23;100.00;92773.91;1980913;30;20361;-81
2023/05/11 00:45:54;;;;;;;;;;;;;;;7.22;100.00;92770.50;1983692;29;19924;-82
2023/05/11 00:47:03;;;;;;;;;;;;;;;7.34;100.00;92777.19;1983468;29;20019;-81
2023/05/11 00:48:09;;;;;;;;;;;;;;;7.26;100.00;92779.19;1987917;29;20032;-82
2023/05/11 00:49:16;;;;;;;;;;;;;;;7.24;100.00;92783.38;1988543;29;19917;-83
2023/05/11 00:50:22;;;;;;;;;;;;;;;7.26;100.00;92778.44;1988877;29;19929;-80
2023/05/11 00:51:28;;;;;;;;;;;;;;;7.30;100.00;92776.47;1988890;29;19913;-81
2023/05/11 00:52:36;;;;;;;;;;;;;;;7.27;100.00;92771.97;1985655;29;19937;-83
2023/05/11 00:53:42;;;;;;;;;;;;;;;7.29;100.00;92775.72;1981728;29;20004;-83
2023/05/11 00:54:49;;;;;;;;;;;;;;;7.30;100.00;92773.81;1991167;29;20003;-83
2023/05/11 00:55:56;;;;;;;;;;;;;;;7.26;100.00;92779.19;1973632;29;20423;-82
2023/05/11 00:57:03;;;;;;;;;;;;;;;7.26;100.00;92778.44;1966736;30;19918;-82
2023/05/11 00:58:09;;;;;;;;;;;;;;;7.23;100.00;92779.97;1985731;29;20618;-81
2023/05/11 00:59:15;;;;;;;;;;;;;;;7.24;100.00;92780.72;1988160;29;19974;-82
2023/05/11 01:00:22;;;;;;;;;;;;;;;7.18;100.00;92777.03;1980289;29;19954;-82
2023/05/11 01:01:29;;;;;;;;;;;;;;;7.23;100.00;92777.31;1974062;30;19996;-82
2023/05/11 01:02:40;;;;;;;;;;;;;;;7.25;100.00;92772.38;1980752;30;20017;-83
2023/05/11 01:03:50;;;;;;;;;;;;;;;7.27;100.00;92779.94;1981957;29;20311;-82
2023/05/11 01:05:05;;;;;;;;;;;;;;;7.23;100.00;92779.22;1980749;29;19917;-82
2023/05/11 01:06:41;;;;;;;;;;;;;;;7.26;100.00;92775.78;1981878;29;19917;-83
2023/05/11 01:07:56;;;;;;;;;;;;;;;7.25;100.00;92774.28;1973640;30;19913;-82
2023/05/11 01:09:14;;;;;;;;;;;;;;;7.27;100.00;92778.03;1976962;29;19991;-82
2023/05/11 01:10:37;;;;;;;;;;;;;;;7.25;100.00;92774.28;1983140;29;20003;-81
2023/05/11 01:11:43;;;;;;;;;;;;;;;7.20;100.00;92777.38;1973284;30;20288;-83
2023/05/11 01:13:06;;;;;;;;;;;;;;;7.27;100.00;92778.03;1967102;30;19945;-81
2023/05/11 01:14:17;;;;;;;;;;;;;;;7.22;100.00;92775.06;1992473;29;19905;-80
2023/05/11 01:15:30;;;;;;;;;;;;;;;7.22;100.00;92780.38;1988199;29;20011;-79
2023/05/11 01:16:39;;;;;;;;;;;;;;;7.24;100.00;92773.53;1986908;29;19985;-80
2023/05/11 01:17:53;;;;;;;;;;;;;;;7.30;100.00;92777.22;1992844;29;19933;-80
2023/05/11 01:19:23;;;;;;;;;;;;;;;7.29;100.00;92780.28;1991840;29;20314;-81
2023/05/11 01:20:31;;;;;;;;;;;;;;;7.25;100.00;92775.03;1982926;29;19952;-83
2023/05/11 01:21:36;;;;;;;;;;;;;;;7.26;100.00;92775.78;1983061;29;20012;-81
2023/05/11 01:22:48;;;;;;;;;;;;;;;7.21;100.00;92776.22;1993071;29;19936;-82
2023/05/11 01:24:07;;;;;;;;;;;;;;;7.19;100.00;92778.53;1993658;29;19933;-81
2023/05/11 01:25:34;;;;;;;;;;;;;;;7.17;100.00;92772.88;1975705;29;20002;-81
2023/05/11 01:27:08;;;;;;;;;;;;;;;7.18;100.00;92780.44;1973393;30;19921;-81
2023/05/11 01:28:40;;;;;;;;;;;;;;;7.16;100.00;92774.03;1980428;30;19917;-83
2023/05/11 01:30:00;;;;;;;;;;;;;;;7.18;100.00;92775.13;1968027;30;19924;-81
2023/05/11 01:31:10;;;;;;;;;;;;;;;7.16;100.00;92780.09;1970744;30;19987;-81
2023/05/11 01:32:36;;;;;;;;;;;;;;;7.13;100.00;92772.16;1975278;30;19917;-82
2023/05/11 01:33:39;;;;;;;;;;;;;;;7.18;100.00;92769.06;1981543;29;19916;-84
2023/05/11 01:34:42;;;;;;;;;;;;;;;7.08;100.00;92770.72;1990465;29;19962;-83
2023/05/11 01:35:54;;;;;;;;;;;;;;;7.18;100.00;92769.06;1987982;29;20354;-82
2023/05/11 01:37:06;;;;;;;;;;;;;;;7.15;100.00;92772.50;1987526;29;19932;-82
2023/05/11 01:38:14;;;;;;;;;;;;;;;7.12;100.00;92770.66;1994539;29;19923;-82
2023/05/11 01:39:21;;;;;;;;;;;;;;;7.12;100.00;92765.34;1987826;29;20023;-82
2023/05/11 01:40:28;;;;;;;;;;;;;;;7.13;100.00;92770.25;1987821;29;19917;-82
2023/05/11 01:41:35;;;;;;;;;;;;;;;7.06;100.00;92776.41;1987644;29;19924;-82
2023/05/11 01:42:49;;;;;;;;;;;;;;;7.09;100.00;92771.47;1987415;29;19952;-83
2023/05/11 01:43:59;;;;;;;;;;;;;;;7.06;100.00;92776.41;1972786;29;19949;-83
2023/05/11 01:45:07;;;;;;;;;;;;;;;7.11;100.00;92779.78;1967762;30;20005;-83
2023/05/11 01:46:18;;;;;;;;;;;;;;;6.98;100.00;92771.59;1975935;29;20450;-80
2023/05/11 01:47:26;;;;;;;;;;;;;;;6.97;100.00;92773.50;1976139;29;20009;-82
2023/05/11 01:48:35;;;;;;;;;;;;;;;6.95;100.00;92778.47;1981034;29;20008;-81
2023/05/11 01:49:42;;;;;;;;;;;;;;;6.95;100.00;92783.03;1988128;29;19913;-83
2023/05/11 01:50:49;;;;;;;;;;;;;;;6.93;100.00;92772.81;1986536;29;20367;-82
2023/05/11 01:51:57;;;;;;;;;;;;;;;6.87;100.00;92774.41;1986607;29;19977;-83
2023/05/11 01:53:04;;;;;;;;;;;;;;;6.88;100.00;92775.16;1987596;29;20000;-82
2023/05/11 01:54:13;;;;;;;;;;;;;;;6.97;100.00;92772.75;1987810;29;20047;-82
2023/05/11 01:55:21;;;;;;;;;;;;;;;7.03;100.00;92784.47;1986489;29;20287;-80
2023/05/11 01:56:29;;;;;;;;;;;;;;;6.93;100.00;92775.47;1987776;29;20472;-82
2023/05/11 01:57:36;;;;;;;;;;;;;;;6.98;100.00;92775.03;1987753;29;19928;-81
2023/05/11 01:58:44;;;;;;;;;;;;;;;6.93;100.00;92777.38;1981780;29;19925;-82
2023/05/11 01:59:50;;;;;;;;;;;;;;;6.90;100.00;92781.59;1991116;29;19968;-83
2023/05/11 02:00:59;;;;;;;;;;;;;;;6.89;100.00;92772.13;1977650;29;19921;-84
2023/05/11 02:02:06;;;;;;;;;;;;;;;6.92;100.00;92773.22;1981067;29;19982;-82
2023/05/11 02:03:13;;;;;;;;;;;;;;;7.01;100.00;92778.78;1990122;29;20404;-82
2023/05/11 02:04:22;;;;;;;;;;;;;;;6.91;100.00;92777.03;1986576;29;20382;-80
2023/05/11 02:05:29;;;;;;;;;;;;;;;6.95;100.00;92777.72;1983280;29;20007;-80
2023/05/11 02:06:54;;;;;;;;;;;;;;;6.94;100.00;92779.66;1978998;30;19914;-83
2023/05/11 02:08:02;;;;;;;;;;;;;;;6.94;100.00;92778.91;1989257;29;19917;-81
2023/05/11 02:09:11;;;;;;;;;;;;;;;6.94;100.00;92779.66;1982014;29;19970;-82
2023/05/11 02:10:18;;;;;;;;;;;;;;;6.93;100.00;92778.13;1974110;29;19925;-83
2023/05/11 02:11:25;;;;;;;;;;;;;;;6.96;100.00;92781.88;1973627;29;19936;-82
2023/05/11 02:12:33;;;;;;;;;;;;;;;6.97;100.00;92778.81;1981130;29;19961;-83
2023/05/11 02:13:40;;;;;;;;;;;;;;;7.02;100.00;92780.28;1989391;29;19921;-82
2023/05/11 02:14:45;;;;;;;;;;;;;;;6.97;100.00;92781.47;1977236;30;19934;-82
2023/05/11 02:15:53;;;;;;;;;;;;;;;6.97;100.00;92778.06;1973781;29;19917;-82
2023/05/11 02:17:01;;;;;;;;;;;;;;;6.90;100.00;92778.19;1989830;29;19957;-82
2023/05/11 02:18:07;;;;;;;;;;;;;;;6.95;100.00;92783.78;1979544;29;20317;-82
2023/05/11 02:19:14;;;;;;;;;;;;;;;6.97;100.00;92778.81;1979704;29;20387;-81
2023/05/11 02:20:22;;;;;;;;;;;;;;;6.92;100.00;92781.19;1982075;29;19913;-81
2023/05/11 02:21:30;;;;;;;;;;;;;;;6.99;100.00;92781.09;1987905;29;20024;-81
2023/05/11 02:22:37;;;;;;;;;;;;;;;7.02;100.00;92782.94;1987616;29;19982;-80
2023/05/11 02:23:45;;;;;;;;;;;;;;;7.04;100.00;92776.06;1987628;29;19916;-83
2023/05/11 02:24:51;;;;;;;;;;;;;;;6.96;100.00;92785.28;1987931;29;19913;-81
2023/05/11 02:25:59;;;;;;;;;;;;;;;6.85;100.00;92787.34;1990822;29;19980;-81
2023/05/11 02:27:23;;;;;;;;;;;;;;;6.98;100.00;92782.22;1988340;29;19917;-82
2023/05/11 02:28:30;;;;;;;;;;;;;;;6.94;100.00;92774.31;1992980;29;19923;-81
2023/05/11 02:29:37;;;;;;;;;;;;;;;6.93;100.00;92785.34;1979901;30;20371;-82
2023/05/11 02:30:49;;;;;;;;;;;;;;;7.00;100.00;92782.59;1982299;29;19929;-82
2023/05/11 02:32:02;;;;;;;;;;;;;;;7.02;100.00;92786.38;1993088;29;20346;-82
2023/05/11 02:33:13;;;;;;;;;;;;;;;6.98;100.00;92785.66;1989634;29;20008;-82
2023/05/11 02:34:37;;;;;;;;;;;;;;;6.99;100.00;92781.84;1973302;30;20019;-80
2023/05/11 02:35:44;;;;;;;;;;;;;;;6.92;100.00;92781.19;1976936;29;19925;-84
2023/05/11 02:36:51;;;;;;;;;;;;;;;6.96;100.00;92779.97;1990770;29;19917;-83
2023/05/11 02:37:59;;;;;;;;;;;;;;;7.02;100.00;92780.28;1980708;30;19924;-82
2023/05/11 02:39:11;;;;;;;;;;;;;;;6.97;100.00;92775.41;1970967;30;19921;-82
2023/05/11 02:40:18;;;;;;;;;;;;;;;7.09;100.00;92774.13;1968091;30;19944;-82
2023/05/11 02:41:29;;;;;;;;;;;;;;;6.99;100.00;92773.88;1984862;29;20532;-81
2023/05/11 02:42:37;;;;;;;;;;;;;;;7.04;100.00;92778.72;1987624;29;19973;-83
2023/05/11 02:43:48;;;;;;;;;;;;;;;7.07;100.00;92777.94;1987635;29;19920;-80
2023/05/11 02:45:01;;;;;;;;;;;;;;;7.06;100.00;92775.66;1987620;29;19917;-81
2023/05/11 02:46:10;;;;;;;;;;;;;;;7.02;100.00;92772.31;1987939;29;19956;-82
2023/05/11 02:47:17;;;;;;;;;;;;;;;7.05;100.00;92782.13;1985120;29;19917;-82
2023/05/11 02:48:31;;;;;;;;;;;;;;;6.91;100.00;92779.69;1979949;30;19917;-82
2023/05/11 02:49:39;;;;;;;;;;;;;;;6.94;100.00;92776.25;1980151;30;20007;-81
2023/05/11 02:50:44;;;;;;;;;;;;;;;7.02;100.00;92778.41;1985274;29;20589;-82
2023/05/11 02:51:51;;;;;;;;;;;;;;;6.98;100.00;92774.25;1987208;29;19917;-82
2023/05/11 02:52:58;;;;;;;;;;;;;;;6.98;100.00;92775.03;1987780;29;19920;-83
2023/05/11 02:54:07;;;;;;;;;;;;;;;6.98;100.00;92772.38;1979856;30;19917;-81
2023/05/11 02:55:14;;;;;;;;;;;;;;;7.01;100.00;92776.13;1979701;29;19920;-81
2023/05/11 02:56:27;;;;;;;;;;;;;;;7.06;100.00;92765.78;1986354;29;19913;-83
2023/05/11 02:57:33;;;;;;;;;;;;;;;6.98;100.00;92777.69;1979556;30;20367;-81
2023/05/11 02:58:40;;;;;;;;;;;;;;;6.93;100.00;92767.50;1980268;30;20019;-80
2023/05/11 02:59:48;;;;;;;;;;;;;;;7.03;100.00;92777.25;1979717;30;19917;-82
2023/05/11 03:00:53;;;;;;;;;;;;;;;6.98;100.00;92768.94;1988765;29;19927;-80
2023/05/11 03:02:00;;;;;;;;;;;;;;;7.03;100.00;92769.25;1989238;29;20351;-80
2023/05/11 03:03:06;;;;;;;;;;;;;;;7.15;100.00;92767.94;1987447;29;19970;-82
2023/05/11 03:04:12;;;;;;;;;;;;;;;7.12;100.00;92773.34;1979047;30;19925;-81
2023/05/11 03:05:17;;;;;;;;;;;;;;;7.16;100.00;92764.16;1974020;30;19922;-82
2023/05/11 03:06:23;;;;;;;;;;;;;;;7.05;100.00;92763.53;1984734;29;19917;-83
2023/05/11 03:07:30;;;;;;;;;;;;;;;6.99;100.00;92762.50;1986407;29;19925;-82
2023/05/11 03:08:39;;;;;;;;;;;;;;;7.02;100.00;92765.09;1980819;29;19957;-82
2023/05/11 03:09:46;;;;;;;;;;;;;;;6.98;100.00;92761.75;1987689;29;19921;-81
2023/05/11 03:10:54;;;;;;;;;;;;;;;6.98;100.00;92763.63;1991263;29;19920;-82
2023/05/11 03:12:05;;;;;;;;;;;;;;;7.03;100.00;92763.94;1993390;29;19977;-82
2023/05/11 03:13:15;;;;;;;;;;;;;;;7.02;100.00;92767.75;1988304;29;19952;-81
2023/05/11 03:14:23;;;;;;;;;;;;;;;6.94;100.00;92763.69;1980575;29;20398;-80
2023/05/11 03:15:30;;;;;;;;;;;;;;;7.03;100.00;92765.84;1981413;29;20036;-83
2023/05/11 03:16:39;;;;;;;;;;;;;;;6.96;100.00;92763.28;1982963;29;19913;-83
2023/05/11 03:17:49;;;;;;;;;;;;;;;6.97;100.00;92765.53;1993977;29;20388;-82
2023/05/11 03:18:54;;;;;;;;;;;;;;;7.00;100.00;92764.00;1986487;29;19951;-81
2023/05/11 03:20:02;;;;;;;;;;;;;;;6.87;100.00;92761.13;1988778;29;19936;-82
2023/05/11 03:21:08;;;;;;;;;;;;;;;6.95;100.00;92762.53;1994332;29;20403;-82
2023/05/11 03:22:14;;;;;;;;;;;;;;;6.97;100.00;92759.47;1984750;29;19918;-82
2023/05/11 03:23:21;;;;;;;;;;;;;;;6.89;100.00;92761.50;1974346;30;20013;-82
2023/05/11 03:24:29;;;;;;;;;;;;;;;6.96;100.00;92760.63;1981420;29;19968;-82
2023/05/11 03:25:36;;;;;;;;;;;;;;;6.98;100.00;92760.97;1981014;30;20385;-82
2023/05/11 03:26:45;;;;;;;;;;;;;;;6.90;100.00;92765.66;1982211;29;19939;-81
2023/05/11 03:27:52;;;;;;;;;;;;;;;6.90;100.00;92759.59;1988824;29;19920;-81
2023/05/11 03:29:01;;;;;;;;;;;;;;;6.90;100.00;92754.28;1987925;29;19966;-83
2023/05/11 03:30:12;;;;;;;;;;;;;;;6.91;100.00;92758.44;1992378;29;19916;-82
2023/05/11 03:31:17;;;;;;;;;;;;;;;6.92;100.00;92754.63;1986915;29;19933;-83
2023/05/11 03:32:22;;;;;;;;;;;;;;;6.99;100.00;92751.88;1973600;30;20022;-80
2023/05/11 03:33:28;;;;;;;;;;;;;;;6.89;100.00;92753.53;1982141;29;19917;-82
2023/05/11 03:34:34;;;;;;;;;;;;;;;6.89;100.00;92753.53;1975408;30;19928;-81
2023/05/11 03:35:43;;;;;;;;;;;;;;;6.91;100.00;92753.88;1985977;29;19949;-81
2023/05/11 03:36:50;;;;;;;;;;;;;;;6.94;100.00;92752.31;1989908;29;19917;-81
2023/05/11 03:37:56;;;;;;;;;;;;;;;6.96;100.00;92753.41;1974633;30;19914;-82
2023/05/11 03:39:05;;;;;;;;;;;;;;;7.00;100.00;92748.81;1979148;29;19921;-81
2023/05/11 03:40:13;;;;;;;;;;;;;;;6.99;100.00;92757.19;1987060;29;20263;-83
2023/05/11 03:41:21;;;;;;;;;;;;;;;6.95;100.00;92756.47;1974215;30;20402;-81
2023/05/11 03:42:29;;;;;;;;;;;;;;;7.05;100.00;92747.59;1981768;29;19938;-82
2023/05/11 03:43:37;;;;;;;;;;;;;;;7.05;100.00;92740.38;1988511;29;20698;-82
2023/05/11 03:44:47;;;;;;;;;;;;;;;7.02;100.00;92746.50;1990922;29;19999;-81
2023/05/11 03:45:55;;;;;;;;;;;;;;;6.97;100.00;92746.94;1990964;29;20378;-82
2023/05/11 03:47:00;;;;;;;;;;;;;;;6.88;100.00;92749.34;1990173;29;19913;-82
2023/05/11 03:48:07;;;;;;;;;;;;;;;6.95;100.00;92743.19;1991978;29;19943;-81
2023/05/11 03:49:14;;;;;;;;;;;;;;;6.91;100.00;92748.56;1986682;29;19925;-82
2023/05/11 03:50:21;;;;;;;;;;;;;;;6.86;100.00;92749.00;1980754;30;19914;-82
2023/05/11 03:51:27;;;;;;;;;;;;;;;6.93;100.00;92756.84;1979867;29;19943;-84
2023/05/11 03:52:36;;;;;;;;;;;;;;;6.85;100.00;92736.88;1981336;30;19914;-82
2023/05/11 03:53:42;;;;;;;;;;;;;;;6.84;100.00;92740.66;1981265;29;19963;-83
2023/05/11 03:54:50;;;;;;;;;;;;;;;6.78;100.00;92736.97;1988551;29;19917;-81
2023/05/11 03:55:57;;;;;;;;;;;;;;;6.89;100.00;92734.94;1989360;29;19925;-80
2023/05/11 03:57:03;;;;;;;;;;;;;;;6.92;100.00;92728.78;1987538;29;20299;-80
2023/05/11 03:58:16;;;;;;;;;;;;;;;6.88;100.00;92735.31;1990482;29;20755;-81
2023/05/11 03:59:21;;;;;;;;;;;;;;;6.86;100.00;92737.63;1989562;29;19916;-83
2023/05/11 04:00:27;;;;;;;;;;;;;;;6.86;100.00;92738.38;1982464;29;19946;-81
2023/05/11 04:01:35;;;;;;;;;;;;;;;6.85;100.00;92728.91;1987509;29;20473;-80
2023/05/11 04:02:42;;;;;;;;;;;;;;;6.84;100.00;92734.59;1975199;30;20037;-82
2023/05/11 04:03:55;;;;;;;;;;;;;;;6.82;100.00;92741.09;1984765;29;19921;-83
2023/05/11 04:05:01;;;;;;;;;;;;;;;6.79;100.00;92738.47;1989613;29;19916;-84
2023/05/11 04:06:07;;;;;;;;;;;;;;;6.72;100.00;92735.91;1984384;29;19967;-82
2023/05/11 04:07:16;;;;;;;;;;;;;;;6.78;100.00;92732.41;1982661;29;19932;-81
2023/05/11 04:08:22;;;;;;;;;;;;;;;6.74;100.00;92737.00;1982629;29;19976;-83
2023/05/11 04:09:30;;;;;;;;;;;;;;;6.77;100.00;92732.81;1991070;29;19910;-81
2023/05/11 04:10:39;;;;;;;;;;;;;;;6.79;100.00;92731.25;1991324;29;19974;-82
2023/05/11 04:11:45;;;;;;;;;;;;;;;6.74;100.00;92728.28;1992510;29;19921;-82
2023/05/11 04:12:49;;;;;;;;;;;;;;;6.78;100.00;92734.31;1982663;30;20043;-80
2023/05/11 04:13:54;;;;;;;;;;;;;;;6.77;100.00;92738.88;1982957;29;19917;-81
2023/05/11 04:15:02;;;;;;;;;;;;;;;6.84;100.00;92731.94;1984363;29;19921;-80
2023/05/11 04:16:11;;;;;;;;;;;;;;;6.83;100.00;92733.84;1964412;30;19914;-80
2023/05/11 04:17:16;;;;;;;;;;;;;;;6.80;100.00;92737.31;1978634;29;19914;-81
2023/05/11 04:18:23;;;;;;;;;;;;;;;6.75;100.00;92737.75;1985860;29;19897;-81
2023/05/11 04:19:30;;;;;;;;;;;;;;;6.72;100.00;92733.28;1983193;29;19921;-83
2023/05/11 04:20:36;;;;;;;;;;;;;;;6.77;100.00;92735.47;1988383;29;20360;-81
2023/05/11 04:21:41;;;;;;;;;;;;;;;6.79;100.00;92735.81;1980431;30;19921;-80
2023/05/11 04:22:47;;;;;;;;;;;;;;;6.81;100.00;92736.19;1973912;30;19925;-84
2023/05/11 04:23:55;;;;;;;;;;;;;;;6.83;100.00;92733.84;1981545;29;20390;-80
2023/05/11 04:25:00;;;;;;;;;;;;;;;6.84;100.00;92738.00;1984343;29;20302;-82
2023/05/11 04:26:05;;;;;;;;;;;;;;;6.89;100.00;92734.16;1981327;29;19921;-81
2023/05/11 04:27:15;;;;;;;;;;;;;;;6.85;100.00;92728.91;1989169;29;19978;-83
2023/05/11 04:28:22;;;;;;;;;;;;;;;6.89;100.00;92739.47;1986029;29;19927;-82
2023/05/11 04:29:28;;;;;;;;;;;;;;;6.89;100.00;92734.16;1986779;29;19944;-81
2023/05/11 04:30:34;;;;;;;;;;;;;;;6.88;100.00;92733.41;1979402;30;19921;-83
2023/05/11 04:31:41;;;;;;;;;;;;;;;6.88;100.00;92738.72;1980284;29;20270;-80
2023/05/11 04:32:47;;;;;;;;;;;;;;;6.90;100.00;92733.78;1979155;29;19917;-82
2023/05/11 04:33:52;;;;;;;;;;;;;;;6.92;100.00;92734.09;1973319;29;19921;-80
2023/05/11 04:35:00;;;;;;;;;;;;;;;6.89;100.00;92744.78;1977313;30;19929;-80
2023/05/11 04:36:07;;;;;;;;;;;;;;;6.93;100.00;92735.59;1981818;29;19921;-82
2023/05/11 04:37:11;;;;;;;;;;;;;;;6.90;100.00;92736.44;1986642;29;19925;-81
2023/05/11 04:38:17;;;;;;;;;;;;;;;6.93;100.00;92738.25;1979417;30;19921;-81
2023/05/11 04:39:26;;;;;;;;;;;;;;;7.00;100.00;92740.84;1973151;30;19917;-81
2023/05/11 04:40:33;;;;;;;;;;;;;;;7.00;100.00;92734.75;1984685;29;19923;-81
2023/05/11 04:41:38;;;;;;;;;;;;;;;7.03;100.00;92737.38;1987324;29;19924;-81
2023/05/11 04:42:45;;;;;;;;;;;;;;;7.03;100.00;92741.94;1987982;29;19924;-81
2023/05/11 04:43:51;;;;;;;;;;;;;;;6.95;100.00;92740.53;1982508;29;19914;-82
2023/05/11 04:45:03;;;;;;;;;;;;;;;6.93;100.00;92737.50;1980288;30;20011;-83
2023/05/11 04:46:09;;;;;;;;;;;;;;;6.98;100.00;92743.16;1987101;29;20728;-83
2023/05/11 04:47:15;;;;;;;;;;;;;;;7.03;100.00;92744.59;1990030;29;19952;-81
2023/05/11 04:48:20;;;;;;;;;;;;;;;7.06;100.00;92741.88;1984735;29;20511;-81
2023/05/11 04:49:26;;;;;;;;;;;;;;;6.99;100.00;92746.56;1973989;30;19922;-80
2023/05/11 04:50:32;;;;;;;;;;;;;;;6.99;100.00;92751.88;1981204;29;19974;-81
2023/05/11 04:51:40;;;;;;;;;;;;;;;6.99;100.00;92751.88;1981009;30;19918;-80
2023/05/11 04:52:48;;;;;;;;;;;;;;;6.98;100.00;92753.78;1974990;30;19918;-82
2023/05/11 04:53:55;;;;;;;;;;;;;;;7.06;100.00;92749.09;1980770;30;19919;-81
2023/05/11 04:55:03;;;;;;;;;;;;;;;7.15;100.00;92751.25;1981193;30;20031;-81
2023/05/11 04:56:10;;;;;;;;;;;;;;;7.14;100.00;92749.75;1980082;29;19982;-80
2023/05/11 04:57:13;;;;;;;;;;;;;;;7.09;100.00;92748.28;1976405;29;21617;-82
2023/05/11 04:58:18;;;;;;;;;;;;;;;7.16;100.00;92752.78;1976447;29;20415;-82
2023/05/11 04:59:26;;;;;;;;;;;;;;;7.19;100.00;92751.94;1979668;30;19924;-82
2023/05/11 05:00:35;;;;;;;;;;;;;;;7.20;100.00;92751.56;1975834;30;19974;-82
2023/05/11 05:01:42;;;;;;;;;;;;;;;7.24;100.00;92746.94;1980913;29;19925;-83
2023/05/11 05:03:08;;;;;;;;;;;;;;;7.23;100.00;92744.66;1979202;29;19921;-82
2023/05/11 05:04:15;;;;;;;;;;;;;;;7.28;100.00;92747.63;1979210;29;19917;-80
2023/05/11 05:05:16;;;;;;;;;;;;;;;7.28;100.00;92749.53;1980412;29;20637;-80
2023/05/11 05:06:17;;;;;;;;;;;;;;;7.23;100.00;92742.75;1980080;29;19913;-82
2023/05/11 05:07:20;;;;;;;;;;;;;;;7.29;100.00;92743.81;1980046;29;20075;-82
2023/05/11 05:08:21;;;;;;;;;;;;;;;7.35;100.00;92743.38;1987913;29;19966;-83
2023/05/11 05:09:21;;;;;;;;;;;;;;;7.38;100.00;92745.22;1977582;29;20272;-81
2023/05/11 05:10:24;;;;;;;;;;;;;;;7.35;100.00;92744.13;1964691;30;20030;-80
2023/05/11 05:11:27;;;;;;;;;;;;;;;7.33;100.00;92743.75;1979925;29;19925;-81
2023/05/11 05:12:29;;;;;;;;;;;;;;;7.40;100.00;92735.66;1980059;30;19928;-80
2023/05/11 05:13:30;;;;;;;;;;;;;;;7.50;100.00;92737.41;1980081;30;19981;-80
2023/05/11 05:14:31;;;;;;;;;;;;;;;7.53;100.00;92744.56;1978897;29;20008;-80
2023/05/11 05:15:34;;;;;;;;;;;;;;;7.50;100.00;92740.06;1974886;29;23884;-82
2023/05/11 05:16:35;;;;;;;;;;;;;;;7.60;100.00;92741.06;1973234;29;19922;-82
2023/05/11 05:17:38;;;;;;;;;;;;;;;7.60;100.00;92751.69;1975868;30;20071;-81
2023/05/11 05:18:41;;;;;;;;;;;;;;;7.58;100.00;92751.34;1981661;30;19917;-80
2023/05/11 05:19:42;;;;;;;;;;;;;;;7.60;100.00;92745.63;1986674;29;19974;-80
2023/05/11 05:20:49;;;;;;;;;;;;;;;7.63;100.00;92747.47;1983437;30;20006;-81
2023/05/11 05:21:50;;;;;;;;;;;;;;;7.63;100.00;92742.13;1984119;29;19928;-80
2023/05/11 05:22:55;;;;;;;;;;;;;;;7.67;100.00;92748.91;1989725;29;19955;-80
2023/05/11 05:23:58;;;;;;;;;;;;;;;7.69;100.00;92751.19;1990644;29;19965;-79
2023/05/11 05:25:00;;;;;;;;;;;;;;;7.72;100.00;92747.69;1990262;29;20283;-82
2023/05/11 05:26:06;;;;;;;;;;;;;;;7.74;100.00;92754.13;1982494;29;19921;-80
2023/05/11 05:27:07;;;;;;;;;;;;;;;7.71;100.00;92754.16;1983036;29;19913;-81
2023/05/11 05:28:11;;;;;;;;;;;;;;;7.77;100.00;92747.22;1984374;29;19928;-86
2023/05/11 05:29:36;;;;;;;;;;;;;;;7.79;100.00;92743.00;1972743;30;19982;-85
2023/05/11 05:30:38;;;;;;;;;;;;;;;7.76;100.00;92753.69;1970761;30;19913;-86
2023/05/11 05:31:39;;;;;;;;;;;;;;;7.89;100.00;92751.19;1980583;29;19917;-82
2023/05/11 05:32:43;;;;;;;;;;;;;;;7.73;100.00;92752.63;1986511;29;19936;-82
2023/05/11 05:33:44;;;;;;;;;;;;;;;7.76;100.00;92753.69;1986874;29;20003;-81
2023/05/11 05:34:47;;;;;;;;;;;;;;;7.79;100.00;92750.25;1979281;30;19914;-81
2023/05/11 05:35:48;;;;;;;;;;;;;;;7.89;100.00;92751.19;1979406;29;19972;-82
2023/05/11 05:36:49;;;;;;;;;;;;;;;7.94;100.00;92746.16;1974242;29;19914;-82
2023/05/11 05:37:50;;;;;;;;;;;;;;;7.76;100.00;92751.78;1957160;30;19930;-82
2023/05/11 05:38:51;;;;;;;;;;;;;;;7.90;100.00;92744.72;1963741;30;20581;-82
2023/05/11 05:39:54;;;;;;;;;;;;;;;7.93;100.00;92742.00;1980005;29;19913;-82
2023/05/11 05:40:56;;;;;;;;;;;;;;;7.90;100.00;92739.41;1987387;29;19917;-82
2023/05/11 05:41:57;;;;;;;;;;;;;;;8.00;100.00;92749.13;1979727;30;20788;-82
2023/05/11 05:43:01;;;;;;;;;;;;;;;7.99;100.00;92743.03;1978851;30;19978;-82
2023/05/11 05:44:06;;;;;;;;;;;;;;;7.97;100.00;92745.34;1979405;29;19944;-81
2023/05/11 05:45:07;;;;;;;;;;;;;;;8.01;100.00;92751.34;1980118;29;20431;-83
2023/05/11 05:46:08;;;;;;;;;;;;;;;8.11;100.00;92751.56;1978948;30;19982;-82
2023/05/11 05:47:09;;;;;;;;;;;;;;;8.10;100.00;92753.47;1972801;30;20004;-80
2023/05/11 05:48:09;;;;;;;;;;;;;;;8.03;100.00;92754.38;1972705;30;19974;-81
2023/05/11 05:49:10;;;;;;;;;;;;;;;8.04;100.00;92747.16;1980023;29;19917;-82
2023/05/11 05:50:11;;;;;;;;;;;;;;;8.03;100.00;92758.94;1979808;30;19917;-81
2023/05/11 05:51:12;;;;;;;;;;;;;;;8.05;100.00;92757.38;1985970;29;19917;-81
2023/05/11 05:52:13;;;;;;;;;;;;;;;8.16;100.00;92753.75;1987949;29;20413;-80